Forside
METAR-TAF:

METAR-TAF

Lufthavne :

Eagle River Union Airport

Eagle River, Wisconsin, USA

Breddekreds: 45-55-54N, længdekreds: 089-16-09W, højde: 501 m

Aktuelle vejr

Denne rapport blev lavet for 13 minutter siden, kl. 13:35 UTC
Vind 11 kt fra nord med vindstød på up til 16 kt
Temperatur 6°C
Fugtighed 49%
Tryk 1027 hPa
Sigt: 16.1 km
skyfri

METAR: KEGV 111335Z AUTO 35011G16KT 10SM CLR 06/M04 A3034 RMK AO2 T00591039

Tid: 08:48 (13:48 UTC)


TAF: fraværende

Vejrobservationer og prognoser fra mere end 4000 lufthavne (METAR og TAF).

De gule og røde prikker repræsenterer de meteorologiske stationer.

Flyt musen over at se navnet på stationen.

Så klik over at se vejr observationer og prognoser.

At skifte det kort: Klik på de grønne knapper med et sort kors for at zoome ind; på den grønne knap med en bindestreg for at zoome ud; eller på de grønne pile for tilstødende kort.


METAR-TAF: